Time;durP1;ratioP1;P1;durP2;ratioP2;P2;SDS_P1;SDS_P2;PMS_P1;PMS_P2;Temp;Humidity;BMP_temperature;BMP_pressure;BME280_temperature;BME280_humidity;BME280_pressure;Samples;Min_cycle;Max_cycle;Signal;HPM_P1;HPM_P2
2022/08/19 00:00:38;;;;;;;7.70;5.22;;;;;;;;;;5062187;28;20056;-65
2022/08/19 00:03:06;;;;;;;10.80;5.43;;;;;;;;;;5063405;28;20048;-64
2022/08/19 00:05:33;;;;;;;10.35;5.93;;;;;;;;;;5062291;28;20045;-63
2022/08/19 00:08:01;;;;;;;10.65;5.72;;;;;;;;;;5064225;28;20081;-64
2022/08/19 00:10:28;;;;;;;8.25;5.03;;;;;;;;;;5062797;28;20571;-63
2022/08/19 00:12:57;;;;;;;8.65;6.10;;;;;;;;;;5057047;28;20053;-64
2022/08/19 00:15:24;;;;;;;9.18;5.95;;;;;;;;;;5062930;28;20039;-64
2022/08/19 00:17:51;;;;;;;8.13;5.65;;;;;;;;;;5067368;28;20106;-63
2022/08/19 00:20:19;;;;;;;16.38;5.80;;;;;;;;;;5054689;28;20453;-64
2022/08/19 00:22:47;;;;;;;8.02;6.03;;;;;;;;;;5064515;28;20559;-63
2022/08/19 00:25:14;;;;;;;10.18;5.63;;;;;;;;;;5055023;28;20075;-64
2022/08/19 00:27:41;;;;;;;8.20;5.47;;;;;;;;;;5061636;28;20109;-64
2022/08/19 00:30:11;;;;;;;7.43;5.65;;;;;;;;;;5058122;28;20134;-65
2022/08/19 00:32:38;;;;;;;7.38;5.28;;;;;;;;;;5055274;28;20049;-64
2022/08/19 00:35:06;;;;;;;7.63;5.10;;;;;;;;;;5063679;28;20044;-64
2022/08/19 00:37:34;;;;;;;9.23;5.75;;;;;;;;;;5060229;28;20060;-64
2022/08/19 00:40:03;;;;;;;8.90;5.90;;;;;;;;;;5062738;28;20052;-63
2022/08/19 00:42:30;;;;;;;11.68;6.07;;;;;;;;;;5059439;28;20067;-62
2022/08/19 00:44:57;;;;;;;10.90;6.32;;;;;;;;;;5064235;28;20041;-63
2022/08/19 00:47:26;;;;;;;8.43;5.68;;;;;;;;;;5053357;28;20071;-64
2022/08/19 00:49:55;;;;;;;11.90;6.63;;;;;;;;;;5059762;28;20045;-63
2022/08/19 00:52:24;;;;;;;9.55;6.70;;;;;;;;;;5064386;28;20445;-63
2022/08/19 00:54:53;;;;;;;7.68;5.97;;;;;;;;;;5058130;28;20113;-63
2022/08/19 00:57:22;;;;;;;11.57;7.20;;;;;;;;;;5059223;28;20120;-64
2022/08/19 00:59:53;;;;;;;15.32;7.10;;;;;;;;;;5061993;28;20086;-64
2022/08/19 01:02:21;;;;;;;8.73;7.30;;;;;;;;;;5057886;28;20483;-64
2022/08/19 01:04:49;;;;;;;10.93;7.10;;;;;;;;;;5061003;28;20495;-64
2022/08/19 01:07:16;;;;;;;11.07;7.45;;;;;;;;;;5061918;28;20056;-63
2022/08/19 01:09:44;;;;;;;11.15;7.10;;;;;;;;;;5060726;28;20469;-63
2022/08/19 01:12:11;;;;;;;11.75;7.28;;;;;;;;;;5061332;28;20538;-63
2022/08/19 01:14:39;;;;;;;9.80;7.13;;;;;;;;;;5061484;28;20056;-63
2022/08/19 01:17:07;;;;;;;12.60;7.60;;;;;;;;;;5056558;28;20486;-63
2022/08/19 01:19:36;;;;;;;13.25;7.70;;;;;;;;;;5062392;28;20053;-64
2022/08/19 01:22:07;;;;;;;9.60;7.13;;;;;;;;;;5060908;28;20103;-63
2022/08/19 01:24:36;;;;;;;9.15;7.20;;;;;;;;;;5054836;28;20057;-64
2022/08/19 01:27:05;;;;;;;8.90;7.47;;;;;;;;;;5063735;28;20048;-64
2022/08/19 01:29:32;;;;;;;10.15;6.88;;;;;;;;;;5060889;28;20044;-65
2022/08/19 01:32:00;;;;;;;9.90;7.32;;;;;;;;;;5057708;28;20040;-64
2022/08/19 01:34:27;;;;;;;13.50;7.45;;;;;;;;;;5054003;28;20053;-63
2022/08/19 01:36:54;;;;;;;10.52;8.15;;;;;;;;;;5061240;28;20068;-64
2022/08/19 01:39:23;;;;;;;13.90;8.80;;;;;;;;;;5059670;28;20450;-63
2022/08/19 01:41:54;;;;;;;9.27;7.38;;;;;;;;;;5066764;28;20471;-63
2022/08/19 01:44:23;;;;;;;11.10;7.70;;;;;;;;;;5059475;28;20057;-64
2022/08/19 01:46:51;;;;;;;9.02;7.13;;;;;;;;;;5063179;28;20538;-64
2022/08/19 01:49:20;;;;;;;10.43;8.38;;;;;;;;;;5061688;28;20086;-64
2022/08/19 01:51:49;;;;;;;10.38;7.40;;;;;;;;;;5060755;28;20062;-63
2022/08/19 01:54:17;;;;;;;12.75;7.88;;;;;;;;;;5061722;28;20044;-65
2022/08/19 01:56:44;;;;;;;11.00;8.02;;;;;;;;;;5059991;28;20056;-65
2022/08/19 01:59:16;;;;;;;13.10;8.30;;;;;;;;;;5061158;28;20101;-63
2022/08/19 02:01:43;;;;;;;11.27;7.82;;;;;;;;;;5052167;28;20060;-64
2022/08/19 02:04:11;;;;;;;11.32;7.38;;;;;;;;;;5064255;28;20048;-65
2022/08/19 02:06:39;;;;;;;8.75;7.85;;;;;;;;;;5062803;28;20048;-63
2022/08/19 02:09:09;;;;;;;10.43;8.55;;;;;;;;;;5061783;28;20056;-63
2022/08/19 02:11:37;;;;;;;12.93;8.85;;;;;;;;;;5059334;28;20496;-64
2022/08/19 02:14:06;;;;;;;12.35;8.13;;;;;;;;;;5051906;28;20407;-63
2022/08/19 02:16:35;;;;;;;10.60;8.20;;;;;;;;;;5058592;28;20124;-63
2022/08/19 02:19:02;;;;;;;10.00;8.15;;;;;;;;;;5059587;28;20137;-63
2022/08/19 02:21:30;;;;;;;10.70;7.40;;;;;;;;;;5060612;28;20049;-63
2022/08/19 02:23:57;;;;;;;12.15;8.80;;;;;;;;;;5053959;28;20538;-63
2022/08/19 02:26:26;;;;;;;11.57;8.32;;;;;;;;;;5058801;28;20186;-63
2022/08/19 02:28:54;;;;;;;12.32;8.23;;;;;;;;;;5053712;28;20059;-63
2022/08/19 02:31:22;;;;;;;9.05;7.93;;;;;;;;;;5058427;28;20571;-63
2022/08/19 02:33:52;;;;;;;9.93;7.50;;;;;;;;;;5055313;28;20065;-64
2022/08/19 02:36:19;;;;;;;13.27;7.88;;;;;;;;;;5060124;28;20079;-63
2022/08/19 02:38:46;;;;;;;10.07;8.50;;;;;;;;;;5061130;28;20048;-63
2022/08/19 02:41:15;;;;;;;8.20;7.28;;;;;;;;;;5060027;28;20514;-62
2022/08/19 02:43:42;;;;;;;11.02;7.82;;;;;;;;;;5061127;28;20110;-63
2022/08/19 02:46:13;;;;;;;9.10;7.03;;;;;;;;;;5064750;28;20053;-63
2022/08/19 02:48:41;;;;;;;10.50;6.85;;;;;;;;;;5061857;28;20041;-63
2022/08/19 02:51:09;;;;;;;13.25;7.25;;;;;;;;;;5068007;28;20053;-64
2022/08/19 02:53:37;;;;;;;9.52;7.43;;;;;;;;;;5063127;28;20049;-63
2022/08/19 02:56:07;;;;;;;8.70;6.85;;;;;;;;;;5066262;28;20691;-64
2022/08/19 02:58:35;;;;;;;10.00;6.80;;;;;;;;;;5063622;28;20111;-63
2022/08/19 03:01:02;;;;;;;14.40;6.57;;;;;;;;;;5062695;28;20466;-63
2022/08/19 03:03:29;;;;;;;13.88;7.80;;;;;;;;;;5066917;28;20376;-63
2022/08/19 03:06:07;;;;;;;11.23;7.38;;;;;;;;;;5066617;28;20041;-64
2022/08/19 03:08:35;;;;;;;11.82;7.03;;;;;;;;;;5058163;28;20045;-64
2022/08/19 03:11:02;;;;;;;11.25;7.10;;;;;;;;;;5069381;28;20056;-64
2022/08/19 03:13:30;;;;;;;16.58;7.82;;;;;;;;;;5063469;28;20053;-63
2022/08/19 03:15:57;;;;;;;15.45;7.88;;;;;;;;;;5063810;28;20491;-64
2022/08/19 03:18:24;;;;;;;11.93;7.60;;;;;;;;;;5067472;28;20048;-63
2022/08/19 03:20:54;;;;;;;15.88;8.20;;;;;;;;;;5067843;28;20113;-62
2022/08/19 03:23:22;;;;;;;13.30;8.20;;;;;;;;;;5066269;28;20040;-63
2022/08/19 03:25:52;;;;;;;12.38;8.70;;;;;;;;;;5067601;28;20135;-63
2022/08/19 03:28:20;;;;;;;12.73;8.00;;;;;;;;;;5067086;28;20049;-63
2022/08/19 03:30:57;;;;;;;11.95;8.48;;;;;;;;;;5060375;28;20458;-64
2022/08/19 03:33:25;;;;;;;11.30;8.27;;;;;;;;;;5060731;28;20091;-64
2022/08/19 03:36:06;;;;;;;12.95;8.23;;;;;;;;;;5064996;28;20113;-65
2022/08/19 03:38:34;;;;;;;17.80;8.68;;;;;;;;;;5060719;28;20161;-63
2022/08/19 03:41:06;;;;;;;12.98;8.40;;;;;;;;;;5061456;28;21353;-63
2022/08/19 03:43:34;;;;;;;11.45;7.97;;;;;;;;;;5056689;28;20052;-64
2022/08/19 03:46:03;;;;;;;12.82;8.55;;;;;;;;;;5071514;28;20147;-63
2022/08/19 03:48:31;;;;;;;13.30;7.90;;;;;;;;;;5056203;28;20076;-64
2022/08/19 03:50:59;;;;;;;9.82;7.75;;;;;;;;;;5065494;28;20048;-65
2022/08/19 03:53:27;;;;;;;9.43;7.53;;;;;;;;;;5065051;28;20474;-64
2022/08/19 03:55:54;;;;;;;12.40;7.97;;;;;;;;;;5056957;28;20110;-63
2022/08/19 03:58:23;;;;;;;13.30;8.35;;;;;;;;;;5067107;28;20067;-63
2022/08/19 04:00:50;;;;;;;12.50;8.52;;;;;;;;;;5059131;28;20052;-63
2022/08/19 04:03:19;;;;;;;12.95;7.93;;;;;;;;;;5066244;28;20056;-63
2022/08/19 04:05:47;;;;;;;12.13;7.93;;;;;;;;;;5071160;28;20060;-63
2022/08/19 04:08:20;;;;;;;11.95;8.35;;;;;;;;;;5063828;28;20147;-62
2022/08/19 04:10:48;;;;;;;12.40;8.38;;;;;;;;;;5064479;28;20090;-63
2022/08/19 04:13:15;;;;;;;16.00;9.63;;;;;;;;;;5064894;28;20048;-64
2022/08/19 04:15:46;;;;;;;17.55;8.95;;;;;;;;;;5063011;28;20056;-64
2022/08/19 04:18:14;;;;;;;12.02;8.15;;;;;;;;;;5064946;28;20052;-63
2022/08/19 04:20:42;;;;;;;12.23;8.48;;;;;;;;;;5058582;28;20495;-63
2022/08/19 04:23:09;;;;;;;11.77;8.38;;;;;;;;;;5065176;28;20492;-63
2022/08/19 04:25:38;;;;;;;13.57;8.73;;;;;;;;;;5066327;28;20075;-63
2022/08/19 04:28:05;;;;;;;11.80;8.70;;;;;;;;;;5062462;28;20411;-63
2022/08/19 04:30:38;;;;;;;13.05;9.93;;;;;;;;;;5058361;28;20554;-63
2022/08/19 04:33:08;;;;;;;16.52;9.60;;;;;;;;;;5060332;28;20080;-63
2022/08/19 04:35:39;;;;;;;14.80;9.60;;;;;;;;;;5060045;28;20489;-64
2022/08/19 04:38:06;;;;;;;15.27;10.55;;;;;;;;;;5061265;28;20052;-63
2022/08/19 04:43:18;;;;;;;17.27;11.02;;;;;;;;;;5058793;28;20055;-63
2022/08/19 04:45:46;;;;;;;15.10;10.35;;;;;;;;;;5059227;28;20056;-64
2022/08/19 04:48:14;;;;;;;13.65;10.15;;;;;;;;;;5058880;28;20680;-64
2022/08/19 04:50:42;;;;;;;16.02;11.23;;;;;;;;;;5055639;28;20057;-63
2022/08/19 04:53:10;;;;;;;15.88;11.30;;;;;;;;;;5065317;28;20093;-62
2022/08/19 04:55:40;;;;;;;16.13;10.60;;;;;;;;;;5062347;28;20055;-64
2022/08/19 04:58:07;;;;;;;14.90;10.68;;;;;;;;;;5060479;28;20045;-63
2022/08/19 05:00:34;;;;;;;19.92;11.20;;;;;;;;;;5056624;28;20060;-64
2022/08/19 05:03:02;;;;;;;16.73;11.02;;;;;;;;;;5055413;28;20040;-63
2022/08/19 05:05:31;;;;;;;16.83;11.27;;;;;;;;;;5074617;28;20059;-64
2022/08/19 05:07:59;;;;;;;19.20;12.73;;;;;;;;;;5067620;28;20080;-63
2022/08/19 05:10:26;;;;;;;18.10;12.52;;;;;;;;;;5064777;28;20440;-63
2022/08/19 05:12:53;;;;;;;19.35;12.68;;;;;;;;;;5063664;28;20053;-63
2022/08/19 05:15:21;;;;;;;15.60;11.07;;;;;;;;;;5058525;28;20067;-63
2022/08/19 05:23:16;;;;;;;17.67;11.95;;;;;;;;;;5063154;28;20159;-63
2022/08/19 05:25:44;;;;;;;17.52;11.27;;;;;;;;;;5063077;28;20411;-63
2022/08/19 05:28:11;;;;;;;18.77;11.60;;;;;;;;;;5064514;28;20048;-63
2022/08/19 05:30:40;;;;;;;18.27;12.18;;;;;;;;;;5058965;28;20114;-63
2022/08/19 05:33:09;;;;;;;14.38;11.32;;;;;;;;;;5063530;28;20103;-64
2022/08/19 05:35:39;;;;;;;18.65;11.45;;;;;;;;;;5055642;28;20072;-63
2022/08/19 05:38:07;;;;;;;16.67;11.52;;;;;;;;;;5063646;28;20131;-63
2022/08/19 05:40:36;;;;;;;18.55;12.40;;;;;;;;;;5062287;28;20048;-64
2022/08/19 05:43:04;;;;;;;18.40;12.52;;;;;;;;;;5062414;28;20140;-65
2022/08/19 05:45:31;;;;;;;16.10;12.07;;;;;;;;;;5064595;28;20048;-63
2022/08/19 05:47:59;;;;;;;16.80;12.15;;;;;;;;;;5063864;28;20102;-63
2022/08/19 05:50:26;;;;;;;19.17;12.52;;;;;;;;;;5062275;28;20041;-63
2022/08/19 05:52:55;;;;;;;18.38;12.23;;;;;;;;;;5058673;28;20775;-64
2022/08/19 05:55:22;;;;;;;17.42;12.07;;;;;;;;;;5060545;28;20154;-64
2022/08/19 05:57:49;;;;;;;17.73;12.85;;;;;;;;;;5056610;28;20056;-63
2022/08/19 06:00:17;;;;;;;17.67;12.02;;;;;;;;;;5059629;28;20106;-65
2022/08/19 06:02:44;;;;;;;18.45;13.55;;;;;;;;;;5064743;28;20509;-64
2022/08/19 06:05:11;;;;;;;15.07;12.38;;;;;;;;;;5064515;28;20049;-65
2022/08/19 06:07:39;;;;;;;18.52;12.52;;;;;;;;;;5062330;28;20131;-64
2022/08/19 06:10:09;;;;;;;19.45;13.27;;;;;;;;;;5061238;28;20048;-64
2022/08/19 06:12:37;;;;;;;19.58;12.50;;;;;;;;;;5060688;28;20044;-64
2022/08/19 06:15:05;;;;;;;20.48;13.35;;;;;;;;;;5062764;28;20063;-64
2022/08/19 06:17:34;;;;;;;20.10;13.23;;;;;;;;;;5063586;28;20068;-64
2022/08/19 06:20:01;;;;;;;17.48;12.85;;;;;;;;;;5065617;28;20129;-64
2022/08/19 06:22:29;;;;;;;22.77;13.27;;;;;;;;;;5063954;28;20084;-63
2022/08/19 06:24:57;;;;;;;14.80;12.32;;;;;;;;;;5063226;28;20037;-65
2022/08/19 06:27:25;;;;;;;21.52;13.63;;;;;;;;;;5065056;28;20122;-63
2022/08/19 06:29:53;;;;;;;16.27;13.05;;;;;;;;;;5072026;28;20060;-63
2022/08/19 06:32:21;;;;;;;17.52;12.50;;;;;;;;;;5066371;28;20051;-64
2022/08/19 06:34:48;;;;;;;18.50;13.07;;;;;;;;;;5060039;28;20052;-64
2022/08/19 06:37:15;;;;;;;21.52;13.43;;;;;;;;;;5059423;28;20894;-64
2022/08/19 06:39:43;;;;;;;18.98;13.13;;;;;;;;;;5060698;28;20056;-64
2022/08/19 06:42:13;;;;;;;23.58;14.02;;;;;;;;;;5066288;28;20049;-64
2022/08/19 06:44:42;;;;;;;17.45;12.73;;;;;;;;;;5067257;28;20040;-64
2022/08/19 06:47:10;;;;;;;19.33;13.68;;;;;;;;;;5068296;28;20543;-63
2022/08/19 06:49:38;;;;;;;18.05;13.75;;;;;;;;;;5068147;28;20052;-64
2022/08/19 06:52:05;;;;;;;18.02;13.25;;;;;;;;;;5067812;28;20062;-64
2022/08/19 06:54:33;;;;;;;18.58;13.75;;;;;;;;;;5064152;28;20048;-64
2022/08/19 06:57:01;;;;;;;18.85;13.27;;;;;;;;;;5058310;28;20040;-64
2022/08/19 06:59:32;;;;;;;21.85;14.35;;;;;;;;;;5064071;28;20647;-63
2022/08/19 07:02:03;;;;;;;19.77;15.00;;;;;;;;;;5064357;28;20049;-65
2022/08/19 07:04:32;;;;;;;19.70;15.13;;;;;;;;;;5072027;28;20052;-64
2022/08/19 07:07:00;;;;;;;17.92;13.93;;;;;;;;;;5066028;28;20064;-64
2022/08/19 07:09:27;;;;;;;18.90;14.55;;;;;;;;;;5064439;28;20044;-64
2022/08/19 07:11:55;;;;;;;20.83;15.07;;;;;;;;;;5055291;28;20053;-64
2022/08/19 07:14:24;;;;;;;20.17;15.27;;;;;;;;;;5068997;28;20403;-64
2022/08/19 07:16:54;;;;;;;19.00;15.68;;;;;;;;;;5065301;28;20194;-64
2022/08/19 07:19:24;;;;;;;21.10;15.43;;;;;;;;;;5065309;28;20110;-64
2022/08/19 07:21:52;;;;;;;27.95;15.65;;;;;;;;;;5066197;28;20562;-64
2022/08/19 07:24:20;;;;;;;23.77;15.93;;;;;;;;;;5067384;28;20060;-64
2022/08/19 07:26:47;;;;;;;20.35;15.68;;;;;;;;;;5065768;28;20455;-64
2022/08/19 07:29:16;;;;;;;22.80;16.08;;;;;;;;;;5067231;28;20056;-65
2022/08/19 07:31:43;;;;;;;22.40;16.05;;;;;;;;;;5066911;28;20612;-64
2022/08/19 07:34:14;;;;;;;23.65;16.48;;;;;;;;;;5067841;28;20539;-64
2022/08/19 07:36:43;;;;;;;24.15;18.17;;;;;;;;;;5061469;28;20060;-64
2022/08/19 07:39:11;;;;;;;20.85;16.20;;;;;;;;;;5067255;28;20041;-64
2022/08/19 07:41:39;;;;;;;26.77;18.50;;;;;;;;;;5066316;28;20135;-65
2022/08/19 07:44:08;;;;;;;25.15;19.33;;;;;;;;;;5067059;28;20466;-64
2022/08/19 07:46:35;;;;;;;25.05;18.90;;;;;;;;;;5069207;28;20069;-64
2022/08/19 07:49:03;;;;;;;26.85;18.42;;;;;;;;;;5064700;28;20048;-64
2022/08/19 07:51:30;;;;;;;25.10;18.33;;;;;;;;;;5067010;28;20593;-64
2022/08/19 07:53:59;;;;;;;24.30;19.17;;;;;;;;;;5063628;28;20098;-63
2022/08/19 07:56:27;;;;;;;25.00;19.52;;;;;;;;;;5066237;28;20110;-65
2022/08/19 07:58:54;;;;;;;25.83;20.02;;;;;;;;;;5067101;28;20416;-64
2022/08/19 08:01:23;;;;;;;29.15;20.38;;;;;;;;;;5060655;28;20052;-64
2022/08/19 08:09:24;;;;;;;27.98;21.40;;;;;;;;;;5065496;28;20053;-65
2022/08/19 08:11:52;;;;;;;32.25;24.38;;;;;;;;;;5059843;28;20105;-65
2022/08/19 08:14:22;;;;;;;34.70;22.85;;;;;;;;;;5065607;28;20045;-65
2022/08/19 08:16:50;;;;;;;34.25;24.70;;;;;;;;;;5065619;28;20094;-63
2022/08/19 08:19:19;;;;;;;34.60;25.90;;;;;;;;;;5061506;28;20572;-65
2022/08/19 08:21:47;;;;;;;32.50;24.95;;;;;;;;;;5068462;28;20182;-64
2022/08/19 08:24:14;;;;;;;34.25;24.77;;;;;;;;;;5061804;28;20067;-64
2022/08/19 08:26:43;;;;;;;31.33;24.80;;;;;;;;;;5068022;28;20518;-64
2022/08/19 08:29:12;;;;;;;30.52;24.70;;;;;;;;;;5066923;28;20052;-64
2022/08/19 08:31:40;;;;;;;33.35;24.45;;;;;;;;;;5065367;28;20636;-63
2022/08/19 08:34:07;;;;;;;35.58;24.98;;;;;;;;;;5064533;28;20059;-64
2022/08/19 08:36:41;;;;;;;34.42;24.02;;;;;;;;;;5066336;28;20384;-64
2022/08/19 08:39:08;;;;;;;33.03;23.27;;;;;;;;;;5060681;28;20056;-64
2022/08/19 08:41:40;;;;;;;29.42;20.63;;;;;;;;;;5066614;28;20105;-64
2022/08/19 08:44:13;;;;;;;34.42;21.23;;;;;;;;;;5065542;28;20052;-64
2022/08/19 08:46:43;;;;;;;28.20;21.02;;;;;;;;;;5061009;28;20061;-64
2022/08/19 08:49:16;;;;;;;29.92;22.33;;;;;;;;;;5063728;28;20055;-64
2022/08/19 08:51:47;;;;;;;26.13;20.08;;;;;;;;;;5059614;28;20048;-64
2022/08/19 08:54:15;;;;;;;27.75;19.23;;;;;;;;;;5066062;28;20044;-65
2022/08/19 08:56:43;;;;;;;29.10;20.08;;;;;;;;;;5066209;28;20109;-65
2022/08/19 08:59:16;;;;;;;26.38;19.83;;;;;;;;;;5064374;28;20388;-63
2022/08/19 09:01:44;;;;;;;26.48;19.05;;;;;;;;;;5063491;28;20403;-64
2022/08/19 09:04:12;;;;;;;27.55;19.02;;;;;;;;;;5065670;28;20052;-65
2022/08/19 09:06:42;;;;;;;24.42;17.52;;;;;;;;;;5066924;28;20109;-64
2022/08/19 09:09:15;;;;;;;20.95;16.15;;;;;;;;;;5064863;28;20037;-64
2022/08/19 09:11:48;;;;;;;21.67;14.80;;;;;;;;;;5058243;28;20054;-64
2022/08/19 09:14:30;;;;;;;22.17;14.18;;;;;;;;;;5063038;28;20633;-64
2022/08/19 09:16:58;;;;;;;20.30;13.27;;;;;;;;;;5066385;28;20049;-65
2022/08/19 09:19:26;;;;;;;19.92;14.10;;;;;;;;;;5064005;28;20048;-65
2022/08/19 09:21:53;;;;;;;21.48;13.50;;;;;;;;;;5063966;28;20093;-65
2022/08/19 09:24:21;;;;;;;22.48;12.40;;;;;;;;;;5065551;28;20056;-64
2022/08/19 09:26:48;;;;;;;23.67;14.30;;;;;;;;;;5064513;28;20053;-65
2022/08/19 09:29:15;;;;;;;19.50;11.65;;;;;;;;;;5058999;28;20045;-64
2022/08/19 09:31:44;;;;;;;16.42;10.63;;;;;;;;;;5064618;28;20057;-65
2022/08/19 09:34:11;;;;;;;17.95;11.38;;;;;;;;;;5069307;28;20184;-64
2022/08/19 09:36:38;;;;;;;20.70;11.68;;;;;;;;;;5064272;28;20048;-64
2022/08/19 09:39:06;;;;;;;18.67;12.35;;;;;;;;;;5064371;28;20044;-64
2022/08/19 09:41:33;;;;;;;17.70;11.02;;;;;;;;;;5061792;28;20045;-64
2022/08/19 09:44:01;;;;;;;20.60;12.50;;;;;;;;;;5065010;28;20454;-64
2022/08/19 09:46:31;;;;;;;22.55;12.02;;;;;;;;;;5065186;28;20043;-65
2022/08/19 09:49:00;;;;;;;20.27;11.98;;;;;;;;;;5063838;28;20048;-65
2022/08/19 09:51:29;;;;;;;19.55;11.75;;;;;;;;;;5063609;28;20045;-65
2022/08/19 09:53:57;;;;;;;17.45;11.85;;;;;;;;;;5061614;28;20053;-64
2022/08/19 09:56:24;;;;;;;17.30;10.38;;;;;;;;;;5062696;28;20059;-66
2022/08/19 09:58:52;;;;;;;19.98;10.88;;;;;;;;;;5065540;28;20748;-64
2022/08/19 10:01:20;;;;;;;20.83;11.52;;;;;;;;;;5064249;28;20060;-64
2022/08/19 10:03:49;;;;;;;20.70;11.20;;;;;;;;;;5060635;28;20419;-64
2022/08/19 10:06:18;;;;;;;19.63;11.80;;;;;;;;;;5067752;28;20059;-64
2022/08/19 10:08:46;;;;;;;26.40;11.80;;;;;;;;;;5065189;28;20053;-65
2022/08/19 10:11:15;;;;;;;21.13;12.45;;;;;;;;;;5057822;28;20056;-64
2022/08/19 10:13:43;;;;;;;23.75;10.45;;;;;;;;;;5074784;28;20141;-65
2022/08/19 10:16:13;;;;;;;18.77;9.32;;;;;;;;;;5063238;28;20494;-64
2022/08/19 10:18:42;;;;;;;19.17;9.10;;;;;;;;;;5061814;28;20044;-64
2022/08/19 10:21:11;;;;;;;15.85;10.95;;;;;;;;;;5062191;28;20078;-64
2022/08/19 10:23:40;;;;;;;15.90;8.95;;;;;;;;;;5060184;28;20048;-64
2022/08/19 10:26:08;;;;;;;13.43;8.32;;;;;;;;;;5061023;28;20053;-64
2022/08/19 10:28:36;;;;;;;17.38;8.05;;;;;;;;;;5064802;28;20558;-64
2022/08/19 10:31:08;;;;;;;17.33;8.48;;;;;;;;;;5065556;28;20131;-64
2022/08/19 10:33:36;;;;;;;21.63;8.55;;;;;;;;;;5064572;28;20099;-66
2022/08/19 10:36:04;;;;;;;15.70;7.63;;;;;;;;;;5059372;28;20694;-64
2022/08/19 10:38:31;;;;;;;16.17;8.07;;;;;;;;;;5062439;28;20102;-65
2022/08/19 10:41:07;;;;;;;13.77;8.45;;;;;;;;;;5063125;28;20060;-65
2022/08/19 10:43:36;;;;;;;13.70;8.25;;;;;;;;;;5057843;28;20044;-64
2022/08/19 10:46:05;;;;;;;16.23;8.30;;;;;;;;;;5066802;28;20044;-64
2022/08/19 10:48:32;;;;;;;15.45;9.18;;;;;;;;;;5062545;28;20079;-65
2022/08/19 10:53:44;;;;;;;17.13;8.60;;;;;;;;;;5059813;28;20048;-64
2022/08/19 10:58:58;;;;;;;14.93;6.82;;;;;;;;;;5062464;28;20053;-65
2022/08/19 11:01:25;;;;;;;16.50;8.43;;;;;;;;;;5058789;28;20072;-64
2022/08/19 11:03:52;;;;;;;18.90;9.77;;;;;;;;;;5056371;28;20457;-64
2022/08/19 11:06:20;;;;;;;15.30;7.70;;;;;;;;;;5064583;28;20507;-64
2022/08/19 11:08:47;;;;;;;15.25;9.00;;;;;;;;;;5060189;28;20084;-65
2022/08/19 11:11:16;;;;;;;19.45;7.95;;;;;;;;;;5062144;28;20097;-65
2022/08/19 11:13:45;;;;;;;13.15;6.47;;;;;;;;;;5059722;28;20488;-65
2022/08/19 11:16:14;;;;;;;11.57;6.63;;;;;;;;;;5064216;28;20155;-64
2022/08/19 11:18:43;;;;;;;10.98;5.97;;;;;;;;;;5065686;28;20127;-64
2022/08/19 11:21:12;;;;;;;9.50;6.18;;;;;;;;;;5063481;28;20136;-64
2022/08/19 11:23:39;;;;;;;9.77;5.57;;;;;;;;;;5066803;28;20056;-65
2022/08/19 11:26:06;;;;;;;12.43;6.20;;;;;;;;;;5052699;28;20746;-65
2022/08/19 11:28:35;;;;;;;10.68;6.38;;;;;;;;;;5063943;28;20048;-64
2022/08/19 11:31:03;;;;;;;13.30;6.78;;;;;;;;;;5066891;28;20059;-65
2022/08/19 11:33:30;;;;;;;13.32;6.25;;;;;;;;;;5067847;28;20070;-64
2022/08/19 11:35:59;;;;;;;11.60;7.00;;;;;;;;;;5066051;28;20049;-65
2022/08/19 11:38:26;;;;;;;11.75;7.63;;;;;;;;;;5067971;28;20436;-64
2022/08/19 11:40:57;;;;;;;12.40;8.13;;;;;;;;;;5064649;28;20060;-66
2022/08/19 11:43:26;;;;;;;12.73;8.20;;;;;;;;;;5063224;28;20048;-64
2022/08/19 11:45:55;;;;;;;13.10;8.57;;;;;;;;;;5064787;28;20123;-65
2022/08/19 11:48:22;;;;;;;14.95;9.18;;;;;;;;;;5059065;28;20048;-64
2022/08/19 11:50:50;;;;;;;13.73;8.05;;;;;;;;;;5063070;28;20465;-64
2022/08/19 11:53:19;;;;;;;16.55;10.35;;;;;;;;;;5068126;28;20056;-64
2022/08/19 11:55:46;;;;;;;14.45;8.80;;;;;;;;;;5062926;28;20131;-65
2022/08/19 11:58:15;;;;;;;12.38;7.68;;;;;;;;;;5061337;28;20049;-65
2022/08/19 12:00:42;;;;;;;10.73;6.80;;;;;;;;;;5059095;28;20084;-65
2022/08/19 12:03:10;;;;;;;12.25;6.90;;;;;;;;;;5062335;28;20041;-64
2022/08/19 12:05:38;;;;;;;12.70;7.13;;;;;;;;;;5064773;28;20052;-64
2022/08/19 12:08:05;;;;;;;11.25;7.53;;;;;;;;;;5065966;28;20405;-65
2022/08/19 12:10:32;;;;;;;12.90;7.25;;;;;;;;;;5066380;28;20045;-65
2022/08/19 12:13:00;;;;;;;11.65;7.03;;;;;;;;;;5067740;28;20049;-64
2022/08/19 12:15:28;;;;;;;15.45;7.97;;;;;;;;;;5065262;28;20051;-64
2022/08/19 12:17:56;;;;;;;11.68;7.15;;;;;;;;;;5062571;28;20052;-64
2022/08/19 12:20:26;;;;;;;15.10;7.57;;;;;;;;;;5057796;28;20041;-65
2022/08/19 12:22:53;;;;;;;18.65;9.10;;;;;;;;;;5057052;28;20226;-65
2022/08/19 12:25:20;;;;;;;13.48;8.68;;;;;;;;;;5063590;28;20410;-64
2022/08/19 12:27:47;;;;;;;14.18;7.68;;;;;;;;;;5065186;28;20220;-64
2022/08/19 12:30:15;;;;;;;15.77;7.80;;;;;;;;;;5069455;28;20514;-65
2022/08/19 12:32:42;;;;;;;15.23;8.35;;;;;;;;;;5065627;28;20055;-64
2022/08/19 12:35:11;;;;;;;15.40;8.40;;;;;;;;;;5063885;28;20539;-65
2022/08/19 12:37:44;;;;;;;15.52;8.18;;;;;;;;;;5062659;28;20052;-64
2022/08/19 12:40:12;;;;;;;16.73;9.98;;;;;;;;;;5064351;28;20071;-64
2022/08/19 12:42:42;;;;;;;16.02;9.35;;;;;;;;;;5066428;28;20622;-65
2022/08/19 12:45:10;;;;;;;12.95;8.30;;;;;;;;;;5067692;28;20076;-64
2022/08/19 12:47:37;;;;;;;13.48;8.88;;;;;;;;;;5061412;28;20080;-64
2022/08/19 12:50:08;;;;;;;15.38;8.82;;;;;;;;;;5057540;28;20064;-65
2022/08/19 12:52:36;;;;;;;12.38;8.35;;;;;;;;;;5065316;28;20055;-64
2022/08/19 12:55:05;;;;;;;12.68;8.73;;;;;;;;;;5059272;28;20102;-65
2022/08/19 12:57:35;;;;;;;14.02;8.88;;;;;;;;;;5064626;28;20090;-65
2022/08/19 13:00:06;;;;;;;14.57;8.75;;;;;;;;;;5062760;28;20470;-64
2022/08/19 13:02:34;;;;;;;14.27;7.78;;;;;;;;;;5065206;28;20411;-65
2022/08/19 13:05:02;;;;;;;13.70;7.85;;;;;;;;;;5059553;28;20087;-64
2022/08/19 13:07:30;;;;;;;11.43;7.88;;;;;;;;;;5058650;28;20057;-64
2022/08/19 13:09:57;;;;;;;13.35;7.70;;;;;;;;;;5066046;28;20044;-64
2022/08/19 13:12:26;;;;;;;13.60;8.75;;;;;;;;;;5062931;28;20044;-65
2022/08/19 13:14:53;;;;;;;12.95;9.38;;;;;;;;;;5062671;28;20105;-65
2022/08/19 13:17:21;;;;;;;14.40;7.82;;;;;;;;;;5059575;28;20051;-65
2022/08/19 13:19:48;;;;;;;14.68;8.00;;;;;;;;;;5060609;28;20065;-65
2022/08/19 13:22:15;;;;;;;11.18;8.23;;;;;;;;;;5057758;28;20663;-65
2022/08/19 13:24:43;;;;;;;11.95;7.88;;;;;;;;;;5064882;28;20059;-65
2022/08/19 13:27:10;;;;;;;8.13;7.03;;;;;;;;;;5063894;28;20067;-64
2022/08/19 13:35:10;;;;;;;13.20;8.20;;;;;;;;;;5062819;28;20440;-65
2022/08/19 13:37:45;;;;;;;9.57;6.32;;;;;;;;;;5058831;28;20063;-65
2022/08/19 13:40:15;;;;;;;8.25;6.25;;;;;;;;;;5064018;28;20040;-64
2022/08/19 13:42:43;;;;;;;9.15;6.38;;;;;;;;;;5058234;28;20056;-65
2022/08/19 13:45:12;;;;;;;9.55;6.95;;;;;;;;;;5064914;28;20133;-64
2022/08/19 13:47:44;;;;;;;13.15;6.57;;;;;;;;;;5059196;28;20059;-64
2022/08/19 13:50:11;;;;;;;11.32;7.35;;;;;;;;;;5058400;28;20036;-64
2022/08/19 13:52:39;;;;;;;10.13;6.50;;;;;;;;;;5064528;28;20056;-66
2022/08/19 13:55:07;;;;;;;11.70;7.60;;;;;;;;;;5053709;28;20412;-65
2022/08/19 13:57:35;;;;;;;14.88;8.32;;;;;;;;;;5063329;28;20044;-65
2022/08/19 14:00:02;;;;;;;14.18;6.97;;;;;;;;;;5065849;28;20087;-65
2022/08/19 14:02:31;;;;;;;9.02;6.57;;;;;;;;;;5065631;28;20110;-65
2022/08/19 14:04:59;;;;;;;9.65;6.32;;;;;;;;;;5065469;28;20061;-64
2022/08/19 14:07:27;;;;;;;13.38;5.90;;;;;;;;;;5065076;28;20052;-64
2022/08/19 14:09:54;;;;;;;8.95;5.40;;;;;;;;;;5064132;28;20048;-65
2022/08/19 14:12:21;;;;;;;5.63;4.07;;;;;;;;;;5061874;28;20052;-64
2022/08/19 14:14:48;;;;;;;7.55;4.45;;;;;;;;;;5063548;28;20510;-65
2022/08/19 14:17:16;;;;;;;7.45;5.05;;;;;;;;;;5064464;28;20048;-64
2022/08/19 14:19:45;;;;;;;10.45;5.43;;;;;;;;;;5063245;28;20424;-65
2022/08/19 14:22:12;;;;;;;7.60;5.47;;;;;;;;;;5062095;28;20103;-65
2022/08/19 14:24:40;;;;;;;9.68;4.75;;;;;;;;;;5065181;28;20056;-65
2022/08/19 14:27:07;;;;;;;8.30;5.10;;;;;;;;;;5064084;28;20145;-65
2022/08/19 14:29:35;;;;;;;8.93;5.93;;;;;;;;;;5063640;28;20446;-65
2022/08/19 14:32:02;;;;;;;13.57;5.88;;;;;;;;;;5063983;28;20049;-66
2022/08/19 14:34:31;;;;;;;9.52;5.70;;;;;;;;;;5063742;28;20500;-65
2022/08/19 14:37:00;;;;;;;8.15;6.13;;;;;;;;;;5059882;28;20149;-66
2022/08/19 14:39:27;;;;;;;8.55;6.93;;;;;;;;;;5057840;28;20505;-65
2022/08/19 14:41:54;;;;;;;9.00;6.18;;;;;;;;;;5060244;28;20057;-65
2022/08/19 14:44:22;;;;;;;11.13;6.28;;;;;;;;;;5058071;28;20090;-66
2022/08/19 14:46:49;;;;;;;9.18;6.55;;;;;;;;;;5057963;28;20045;-65
2022/08/19 14:49:18;;;;;;;7.57;6.20;;;;;;;;;;5055746;28;20057;-64
2022/08/19 14:51:46;;;;;;;8.45;6.28;;;;;;;;;;5065478;28;20478;-64
2022/08/19 14:54:15;;;;;;;9.30;6.25;;;;;;;;;;5067131;28;20549;-64
2022/08/19 14:56:43;;;;;;;7.32;5.60;;;;;;;;;;5066562;28;20059;-66